Aérodrome :
LOGIN :

S'inscrire | Disclaimer

   EN    FR    IT 

 










Légende :    VFR   VFR Marginal   IFR   IFR Intensif   IFR Très Intensif
Visi : 
Plafond : 
>= 8 km
>= 3000ft
5 à 8 km
1000 à 3000 ft
1500m à 5 km
500 à 1000 ft
800 à 1500m
200 à 500 ft
< 800m
< 200 ft
Symboles :   Orages  Brouillard  Fortes neiges  Fortes précipitations  Vent > 20 kt
SIGMETs :   Divers  Orages  Givrage  Turbulence  Onde Orograph.  Cendres Volcan.






- Altitude de l'aérodrome : 157 ft
- Code IATA : SXF


EDDB - Berlin Schönefeld

DERNIER METAR :
  • 171250Z 23014KT 9999 FEW030 17/11 Q1013 NOSIG

METARs EXPIRÉS :
  • 171220Z 22011KT 9999 FEW029 17/11 Q1013 NOSIG
  • 171150Z 22013KT CAVOK 17/10 Q1013 NOSIG
  • 171120Z 23013KT 9999 FEW046 17/10 Q1013 NOSIG
  • 171050Z 23014KT 9999 FEW046 17/10 Q1013 NOSIG
  • 171020Z 22013KT 9999 FEW043 16/09 Q1013 NOSIG

TAF TAF EDDB
Valide du 17 à 12h jusqu'au 18 à 12h UTC


171100Z 1712/1812 21012KT 9999 SCT040
BECMG 1714/1717 18005KT



MET'MAP, la Météo Aéronautique d'un coup d'oeil ! - Copyright ORBIFLY Décembre 2007 - Disclaimer

ORBIFLY MET'MAP TEAM :

Programmation & Développement : Alexandra Zaïnal
Conception & Développement : Baudouin d'Aumeries
Co-Programmation & Développement : Marc-Olivier Méhu
Soutien technique & logistique : Manuel Goepfert

Contact : metmap@orbifly.com




SOURCES & CREDITS :

   NOAA